Abbot Village, Maine
Current Conditions -  °F | °C
As of 3:30 AM on Sunday 26 Oct 2014 (Local Time) from KBGR Reporting Station
Overcast Overcast  
Wind Chill: 47°   Ceiling: 6000
Heat Index: 47°   Visibility: 10mi
Dew Point: 46°   Wind: 3mph
Humidity: 97%   Direction: 120°ESE
Pressure: 29.39"   Gusts: NA
Location:  45.19°N, 69.45°W
Report Text: KBGR 260730Z 12003KT 10SM SCT005 BKN060 OVC070 08/08 A2939 RMK AO2 RAE29 P0000 T00830078
Loading
Personal Weather Stations






























Interactive Weather Map
Tropical Storm Tracking
New forecast layout! Learn more

10-Day Weather Forecast

Advertisements
Track Severe Weather on mobile